sensor_id;sensor_type;location;lat;lon;timestamp;temperature;humidity
39347;DHT22;26262;49.836;6.632;2022-08-24T00:00:15;17.90;99.90
39347;DHT22;26262;49.836;6.632;2022-08-24T00:02:41;18.00;99.90
39347;DHT22;26262;49.836;6.632;2022-08-24T00:05:07;18.00;99.90
39347;DHT22;26262;49.836;6.632;2022-08-24T00:07:33;17.90;99.90
39347;DHT22;26262;49.836;6.632;2022-08-24T00:09:59;17.90;99.90
39347;DHT22;26262;49.836;6.632;2022-08-24T00:12:26;17.90;99.90
39347;DHT22;26262;49.836;6.632;2022-08-24T00:14:53;17.90;99.90
39347;DHT22;26262;49.836;6.632;2022-08-24T00:17:19;17.50;99.90
39347;DHT22;26262;49.836;6.632;2022-08-24T00:19:45;17.60;99.90
39347;DHT22;26262;49.836;6.632;2022-08-24T00:22:11;17.40;99.90
39347;DHT22;26262;49.836;6.632;2022-08-24T00:24:37;17.40;99.90
39347;DHT22;26262;49.836;6.632;2022-08-24T00:27:04;17.40;99.90
39347;DHT22;26262;49.836;6.632;2022-08-24T00:29:30;17.50;99.90
39347;DHT22;26262;49.836;6.632;2022-08-24T00:31:56;17.40;99.90
39347;DHT22;26262;49.836;6.632;2022-08-24T00:34:21;17.30;99.90
39347;DHT22;26262;49.836;6.632;2022-08-24T00:36:47;17.20;99.90
39347;DHT22;26262;49.836;6.632;2022-08-24T00:39:13;17.30;99.90
39347;DHT22;26262;49.836;6.632;2022-08-24T00:41:43;17.40;99.90
39347;DHT22;26262;49.836;6.632;2022-08-24T00:44:10;17.40;99.90
39347;DHT22;26262;49.836;6.632;2022-08-24T00:46:53;17.40;99.90
39347;DHT22;26262;49.836;6.632;2022-08-24T00:49:38;17.30;99.90
39347;DHT22;26262;49.836;6.632;2022-08-24T00:54:54;17.30;99.90
39347;DHT22;26262;49.836;6.632;2022-08-24T00:57:25;17.20;99.90
39347;DHT22;26262;49.836;6.632;2022-08-24T00:59:56;17.20;99.90
39347;DHT22;26262;49.836;6.632;2022-08-24T01:02:26;17.30;99.90
39347;DHT22;26262;49.836;6.632;2022-08-24T01:05:00;17.10;99.90
39347;DHT22;26262;49.836;6.632;2022-08-24T01:07:28;17.10;99.90
39347;DHT22;26262;49.836;6.632;2022-08-24T01:09:57;17.20;99.90
39347;DHT22;26262;49.836;6.632;2022-08-24T01:12:23;17.10;99.90
39347;DHT22;26262;49.836;6.632;2022-08-24T01:14:49;16.90;99.90
39347;DHT22;26262;49.836;6.632;2022-08-24T01:17:16;16.80;99.90
39347;DHT22;26262;49.836;6.632;2022-08-24T01:20:14;16.80;99.90
39347;DHT22;26262;49.836;6.632;2022-08-24T01:22:57;16.90;99.90
39347;DHT22;26262;49.836;6.632;2022-08-24T01:25:27;17.00;99.90
39347;DHT22;26262;49.836;6.632;2022-08-24T01:27:57;17.00;99.90
39347;DHT22;26262;49.836;6.632;2022-08-24T01:30:24;17.10;99.90
39347;DHT22;26262;49.836;6.632;2022-08-24T01:32:56;17.00;99.90
39347;DHT22;26262;49.836;6.632;2022-08-24T01:35:22;17.00;99.90
39347;DHT22;26262;49.836;6.632;2022-08-24T01:37:48;17.00;99.90
39347;DHT22;26262;49.836;6.632;2022-08-24T01:40:14;17.00;99.90
39347;DHT22;26262;49.836;6.632;2022-08-24T01:42:50;17.00;99.90
39347;DHT22;26262;49.836;6.632;2022-08-24T01:45:16;17.00;99.90
39347;DHT22;26262;49.836;6.632;2022-08-24T01:47:41;16.90;99.90
39347;DHT22;26262;49.836;6.632;2022-08-24T01:50:07;16.80;99.90
39347;DHT22;26262;49.836;6.632;2022-08-24T01:52:33;16.80;99.90
39347;DHT22;26262;49.836;6.632;2022-08-24T01:54:59;16.80;99.90
39347;DHT22;26262;49.836;6.632;2022-08-24T01:57:25;16.80;99.90
39347;DHT22;26262;49.836;6.632;2022-08-24T01:59:51;16.80;99.90
39347;DHT22;26262;49.836;6.632;2022-08-24T02:02:21;16.80;99.90
39347;DHT22;26262;49.836;6.632;2022-08-24T02:04:48;16.80;99.90
39347;DHT22;26262;49.836;6.632;2022-08-24T02:07:14;16.60;99.90
39347;DHT22;26262;49.836;6.632;2022-08-24T02:09:40;16.60;99.90
39347;DHT22;26262;49.836;6.632;2022-08-24T02:12:06;16.60;99.90
39347;DHT22;26262;49.836;6.632;2022-08-24T02:14:32;16.60;99.90
39347;DHT22;26262;49.836;6.632;2022-08-24T02:16:57;16.60;99.90
39347;DHT22;26262;49.836;6.632;2022-08-24T02:19:24;16.70;99.90
39347;DHT22;26262;49.836;6.632;2022-08-24T02:21:49;16.70;99.90
39347;DHT22;26262;49.836;6.632;2022-08-24T02:24:15;16.70;99.90
39347;DHT22;26262;49.836;6.632;2022-08-24T02:26:41;16.70;99.90
39347;DHT22;26262;49.836;6.632;2022-08-24T02:29:06;16.70;99.90
39347;DHT22;26262;49.836;6.632;2022-08-24T02:31:32;16.70;99.90
39347;DHT22;26262;49.836;6.632;2022-08-24T02:33:58;16.70;99.90
39347;DHT22;26262;49.836;6.632;2022-08-24T02:36:24;16.70;99.90
39347;DHT22;26262;49.836;6.632;2022-08-24T02:38:50;16.80;99.90
39347;DHT22;26262;49.836;6.632;2022-08-24T02:41:15;16.70;99.90
39347;DHT22;26262;49.836;6.632;2022-08-24T02:43:41;16.70;99.90
39347;DHT22;26262;49.836;6.632;2022-08-24T02:46:06;16.70;99.90
39347;DHT22;26262;49.836;6.632;2022-08-24T02:48:32;16.70;99.90
39347;DHT22;26262;49.836;6.632;2022-08-24T02:50:58;16.60;99.90
39347;DHT22;26262;49.836;6.632;2022-08-24T02:53:24;16.50;99.90
39347;DHT22;26262;49.836;6.632;2022-08-24T02:55:50;16.60;99.90
39347;DHT22;26262;49.836;6.632;2022-08-24T02:58:16;16.50;99.90
39347;DHT22;26262;49.836;6.632;2022-08-24T03:00:44;16.40;99.90
39347;DHT22;26262;49.836;6.632;2022-08-24T03:03:10;16.50;99.90
39347;DHT22;26262;49.836;6.632;2022-08-24T03:05:36;16.50;99.90
39347;DHT22;26262;49.836;6.632;2022-08-24T03:08:02;16.50;99.90
39347;DHT22;26262;49.836;6.632;2022-08-24T03:10:28;16.50;99.90
39347;DHT22;26262;49.836;6.632;2022-08-24T03:12:54;16.40;99.90
39347;DHT22;26262;49.836;6.632;2022-08-24T03:15:20;16.40;99.90
39347;DHT22;26262;49.836;6.632;2022-08-24T03:17:47;16.40;99.90
39347;DHT22;26262;49.836;6.632;2022-08-24T03:20:16;16.40;99.90
39347;DHT22;26262;49.836;6.632;2022-08-24T03:22:43;16.50;99.90
39347;DHT22;26262;49.836;6.632;2022-08-24T03:25:09;16.50;99.90
39347;DHT22;26262;49.836;6.632;2022-08-24T03:27:36;16.50;99.90
39347;DHT22;26262;49.836;6.632;2022-08-24T03:30:03;16.50;99.90
39347;DHT22;26262;49.836;6.632;2022-08-24T03:32:29;16.50;99.90
39347;DHT22;26262;49.836;6.632;2022-08-24T03:34:54;16.40;99.90
39347;DHT22;26262;49.836;6.632;2022-08-24T03:37:20;16.40;99.90
39347;DHT22;26262;49.836;6.632;2022-08-24T03:39:46;16.20;99.90
39347;DHT22;26262;49.836;6.632;2022-08-24T03:42:13;16.20;99.90
39347;DHT22;26262;49.836;6.632;2022-08-24T03:44:39;16.20;99.90
39347;DHT22;26262;49.836;6.632;2022-08-24T03:47:05;16.20;99.90
39347;DHT22;26262;49.836;6.632;2022-08-24T03:49:32;16.20;99.90
39347;DHT22;26262;49.836;6.632;2022-08-24T03:51:58;16.20;99.90
39347;DHT22;26262;49.836;6.632;2022-08-24T03:54:24;16.20;99.90
39347;DHT22;26262;49.836;6.632;2022-08-24T03:56:50;16.20;99.90
39347;DHT22;26262;49.836;6.632;2022-08-24T03:59:15;16.20;99.90
39347;DHT22;26262;49.836;6.632;2022-08-24T04:01:41;16.20;99.90
39347;DHT22;26262;49.836;6.632;2022-08-24T04:04:06;16.20;99.90
39347;DHT22;26262;49.836;6.632;2022-08-24T04:06:32;16.20;99.90
39347;DHT22;26262;49.836;6.632;2022-08-24T04:08:58;16.10;99.90
39347;DHT22;26262;49.836;6.632;2022-08-24T04:11:25;16.10;99.90
39347;DHT22;26262;49.836;6.632;2022-08-24T04:13:53;16.10;99.90
39347;DHT22;26262;49.836;6.632;2022-08-24T04:16:21;16.10;99.90
39347;DHT22;26262;49.836;6.632;2022-08-24T04:18:48;16.10;99.90
39347;DHT22;26262;49.836;6.632;2022-08-24T04:21:21;16.00;99.90
39347;DHT22;26262;49.836;6.632;2022-08-24T04:23:47;15.90;99.90
39347;DHT22;26262;49.836;6.632;2022-08-24T04:26:14;15.80;99.90
39347;DHT22;26262;49.836;6.632;2022-08-24T04:28:40;15.80;99.90
39347;DHT22;26262;49.836;6.632;2022-08-24T04:31:06;15.80;99.90
39347;DHT22;26262;49.836;6.632;2022-08-24T04:33:32;15.80;99.90
39347;DHT22;26262;49.836;6.632;2022-08-24T04:35:58;15.80;99.90
39347;DHT22;26262;49.836;6.632;2022-08-24T04:38:24;15.90;99.90
39347;DHT22;26262;49.836;6.632;2022-08-24T04:40:51;15.80;99.90
39347;DHT22;26262;49.836;6.632;2022-08-24T04:43:17;15.80;99.90
39347;DHT22;26262;49.836;6.632;2022-08-24T04:45:45;15.80;99.90
39347;DHT22;26262;49.836;6.632;2022-08-24T04:48:12;15.80;99.90
39347;DHT22;26262;49.836;6.632;2022-08-24T04:50:39;15.80;99.90
39347;DHT22;26262;49.836;6.632;2022-08-24T04:53:06;15.60;99.90
39347;DHT22;26262;49.836;6.632;2022-08-24T04:55:39;15.20;99.90
39347;DHT22;26262;49.836;6.632;2022-08-24T04:58:05;15.30;99.90
39347;DHT22;26262;49.836;6.632;2022-08-24T05:00:31;15.40;99.90
39347;DHT22;26262;49.836;6.632;2022-08-24T05:02:57;15.50;99.90
39347;DHT22;26262;49.836;6.632;2022-08-24T05:05:23;15.40;99.90
39347;DHT22;26262;49.836;6.632;2022-08-24T05:07:48;15.30;99.90
39347;DHT22;26262;49.836;6.632;2022-08-24T05:10:14;15.40;99.90
39347;DHT22;26262;49.836;6.632;2022-08-24T05:12:40;15.50;99.90
39347;DHT22;26262;49.836;6.632;2022-08-24T05:15:07;15.60;99.90
39347;DHT22;26262;49.836;6.632;2022-08-24T05:17:32;15.60;99.90
39347;DHT22;26262;49.836;6.632;2022-08-24T05:19:58;15.50;99.90
39347;DHT22;26262;49.836;6.632;2022-08-24T05:22:24;15.50;99.90
39347;DHT22;26262;49.836;6.632;2022-08-24T05:24:50;15.50;99.90
39347;DHT22;26262;49.836;6.632;2022-08-24T05:27:16;15.50;99.90
39347;DHT22;26262;49.836;6.632;2022-08-24T05:29:42;15.60;99.90
39347;DHT22;26262;49.836;6.632;2022-08-24T05:32:07;15.60;99.90
39347;DHT22;26262;49.836;6.632;2022-08-24T05:34:33;15.60;99.90
39347;DHT22;26262;49.836;6.632;2022-08-24T05:36:58;15.70;99.90
39347;DHT22;26262;49.836;6.632;2022-08-24T05:39:24;15.70;99.90
39347;DHT22;26262;49.836;6.632;2022-08-24T05:41:50;15.70;99.90
39347;DHT22;26262;49.836;6.632;2022-08-24T05:44:16;15.70;99.90
39347;DHT22;26262;49.836;6.632;2022-08-24T05:46:43;15.70;99.90
39347;DHT22;26262;49.836;6.632;2022-08-24T05:49:09;15.70;99.90
39347;DHT22;26262;49.836;6.632;2022-08-24T05:51:35;15.70;99.90
39347;DHT22;26262;49.836;6.632;2022-08-24T05:54:00;15.80;99.90
39347;DHT22;26262;49.836;6.632;2022-08-24T05:56:28;15.70;99.90
39347;DHT22;26262;49.836;6.632;2022-08-24T05:58:54;15.70;99.90
39347;DHT22;26262;49.836;6.632;2022-08-24T06:01:22;15.60;99.90
39347;DHT22;26262;49.836;6.632;2022-08-24T06:03:49;15.70;99.90
39347;DHT22;26262;49.836;6.632;2022-08-24T06:06:16;15.80;99.90
39347;DHT22;26262;49.836;6.632;2022-08-24T06:08:44;15.90;99.90
39347;DHT22;26262;49.836;6.632;2022-08-24T06:11:14;15.90;99.90
39347;DHT22;26262;49.836;6.632;2022-08-24T06:13:43;15.90;99.90
39347;DHT22;26262;49.836;6.632;2022-08-24T06:16:12;16.10;99.90
39347;DHT22;26262;49.836;6.632;2022-08-24T06:18:39;16.20;99.90
39347;DHT22;26262;49.836;6.632;2022-08-24T06:21:12;16.20;99.90
39347;DHT22;26262;49.836;6.632;2022-08-24T06:23:39;16.20;99.90
39347;DHT22;26262;49.836;6.632;2022-08-24T06:26:07;16.30;99.90
39347;DHT22;26262;49.836;6.632;2022-08-24T06:28:52;16.30;99.90
39347;DHT22;26262;49.836;6.632;2022-08-24T06:31:18;16.40;99.90
39347;DHT22;26262;49.836;6.632;2022-08-24T06:33:44;16.40;99.90
39347;DHT22;26262;49.836;6.632;2022-08-24T06:36:10;16.20;99.90
39347;DHT22;26262;49.836;6.632;2022-08-24T06:38:35;16.30;99.90
39347;DHT22;26262;49.836;6.632;2022-08-24T06:41:02;16.20;99.90
39347;DHT22;26262;49.836;6.632;2022-08-24T06:43:27;16.40;99.90
39347;DHT22;26262;49.836;6.632;2022-08-24T06:45:54;16.50;99.90
39347;DHT22;26262;49.836;6.632;2022-08-24T06:48:20;16.60;99.90
39347;DHT22;26262;49.836;6.632;2022-08-24T06:50:46;16.70;99.90
39347;DHT22;26262;49.836;6.632;2022-08-24T06:53:12;16.70;99.90
39347;DHT22;26262;49.836;6.632;2022-08-24T06:55:47;16.80;99.90
39347;DHT22;26262;49.836;6.632;2022-08-24T06:58:13;16.90;99.90
39347;DHT22;26262;49.836;6.632;2022-08-24T07:00:39;17.00;99.90
39347;DHT22;26262;49.836;6.632;2022-08-24T07:03:05;17.20;99.90
39347;DHT22;26262;49.836;6.632;2022-08-24T07:05:30;17.20;99.90
39347;DHT22;26262;49.836;6.632;2022-08-24T07:07:56;17.30;99.90
39347;DHT22;26262;49.836;6.632;2022-08-24T07:10:24;17.40;99.90
39347;DHT22;26262;49.836;6.632;2022-08-24T07:12:49;17.50;99.90
39347;DHT22;26262;49.836;6.632;2022-08-24T07:15:15;17.50;99.90
39347;DHT22;26262;49.836;6.632;2022-08-24T07:17:41;17.60;99.90
39347;DHT22;26262;49.836;6.632;2022-08-24T07:20:06;17.70;99.90
39347;DHT22;26262;49.836;6.632;2022-08-24T07:22:33;17.90;99.90
39347;DHT22;26262;49.836;6.632;2022-08-24T07:24:59;18.00;99.90
39347;DHT22;26262;49.836;6.632;2022-08-24T07:27:24;18.20;99.90
39347;DHT22;26262;49.836;6.632;2022-08-24T07:29:53;18.30;99.90
39347;DHT22;26262;49.836;6.632;2022-08-24T07:32:19;18.40;99.90
39347;DHT22;26262;49.836;6.632;2022-08-24T07:34:45;18.60;99.90
39347;DHT22;26262;49.836;6.632;2022-08-24T07:37:10;18.70;99.90
39347;DHT22;26262;49.836;6.632;2022-08-24T07:39:36;18.90;99.90
39347;DHT22;26262;49.836;6.632;2022-08-24T07:42:02;19.00;99.90
39347;DHT22;26262;49.836;6.632;2022-08-24T07:44:28;19.10;99.90
39347;DHT22;26262;49.836;6.632;2022-08-24T07:46:56;19.20;99.90
39347;DHT22;26262;49.836;6.632;2022-08-24T07:49:21;19.30;99.90
39347;DHT22;26262;49.836;6.632;2022-08-24T07:51:47;19.40;99.90
39347;DHT22;26262;49.836;6.632;2022-08-24T07:54:13;19.50;99.90
39347;DHT22;26262;49.836;6.632;2022-08-24T07:56:42;19.70;99.90
39347;DHT22;26262;49.836;6.632;2022-08-24T07:59:08;19.80;99.90
39347;DHT22;26262;49.836;6.632;2022-08-24T08:01:33;20.00;99.90
39347;DHT22;26262;49.836;6.632;2022-08-24T08:03:59;20.20;99.90
39347;DHT22;26262;49.836;6.632;2022-08-24T08:06:24;20.30;99.90
39347;DHT22;26262;49.836;6.632;2022-08-24T08:08:50;20.50;99.90
39347;DHT22;26262;49.836;6.632;2022-08-24T08:11:15;20.60;99.90
39347;DHT22;26262;49.836;6.632;2022-08-24T08:13:41;20.80;99.90
39347;DHT22;26262;49.836;6.632;2022-08-24T08:16:07;21.10;99.90
39347;DHT22;26262;49.836;6.632;2022-08-24T08:18:33;21.20;99.90
39347;DHT22;26262;49.836;6.632;2022-08-24T08:21:00;21.40;99.90
39347;DHT22;26262;49.836;6.632;2022-08-24T08:23:26;21.60;99.90
39347;DHT22;26262;49.836;6.632;2022-08-24T08:26:16;21.80;99.90
39347;DHT22;26262;49.836;6.632;2022-08-24T08:28:43;22.10;99.90
39347;DHT22;26262;49.836;6.632;2022-08-24T08:31:08;22.30;99.90
39347;DHT22;26262;49.836;6.632;2022-08-24T08:33:34;22.60;99.90
39347;DHT22;26262;49.836;6.632;2022-08-24T08:36:09;22.90;99.90
39347;DHT22;26262;49.836;6.632;2022-08-24T08:38:35;23.10;99.90
39347;DHT22;26262;49.836;6.632;2022-08-24T08:44:25;23.70;99.90
39347;DHT22;26262;49.836;6.632;2022-08-24T09:00:58;24.70;97.50
39347;DHT22;26262;49.836;6.632;2022-08-24T09:03:42;24.90;98.00
39347;DHT22;26262;49.836;6.632;2022-08-24T09:09:34;25.40;97.70
39347;DHT22;26262;49.836;6.632;2022-08-24T09:12:43;25.70;97.00
39347;DHT22;26262;49.836;6.632;2022-08-24T09:23:33;26.40;95.50
39347;DHT22;26262;49.836;6.632;2022-08-24T09:31:26;27.00;93.30
39347;DHT22;26262;49.836;6.632;2022-08-24T09:34:17;27.20;93.00
39347;DHT22;26262;49.836;6.632;2022-08-24T09:36:54;27.40;91.50
39347;DHT22;26262;49.836;6.632;2022-08-24T09:39:57;27.60;90.40
39347;DHT22;26262;49.836;6.632;2022-08-24T09:48:02;28.60;86.30
39347;DHT22;26262;49.836;6.632;2022-08-24T09:56:40;29.70;81.70
39347;DHT22;26262;49.836;6.632;2022-08-24T10:07:23;31.20;70.00
39347;DHT22;26262;49.836;6.632;2022-08-24T10:09:56;31.30;70.80
39347;DHT22;26262;49.836;6.632;2022-08-24T10:12:34;31.40;68.20
39347;DHT22;26262;49.836;6.632;2022-08-24T10:15:08;31.50;64.80
39347;DHT22;26262;49.836;6.632;2022-08-24T10:25:59;32.40;62.20
39347;DHT22;26262;49.836;6.632;2022-08-24T10:28:38;32.40;61.90
39347;DHT22;26262;49.836;6.632;2022-08-24T10:31:11;33.10;60.50
39347;DHT22;26262;49.836;6.632;2022-08-24T10:34:03;33.40;59.90
39347;DHT22;26262;49.836;6.632;2022-08-24T10:37:03;33.70;60.40
39347;DHT22;26262;49.836;6.632;2022-08-24T10:48:24;34.20;57.40
39347;DHT22;26262;49.836;6.632;2022-08-24T10:56:10;34.10;55.00
39347;DHT22;26262;49.836;6.632;2022-08-24T11:01:25;33.70;56.60
39347;DHT22;26262;49.836;6.632;2022-08-24T11:04:10;34.40;54.00
39347;DHT22;26262;49.836;6.632;2022-08-24T11:06:41;33.80;54.70
39347;DHT22;26262;49.836;6.632;2022-08-24T11:09:14;34.20;55.10
39347;DHT22;26262;49.836;6.632;2022-08-24T11:11:45;34.40;54.20
39347;DHT22;26262;49.836;6.632;2022-08-24T11:16:43;35.30;52.10
39347;DHT22;26262;49.836;6.632;2022-08-24T11:19:12;35.50;52.40
39347;DHT22;26262;49.836;6.632;2022-08-24T11:21:50;35.70;51.40
39347;DHT22;26262;49.836;6.632;2022-08-24T11:26:57;35.30;52.50
39347;DHT22;26262;49.836;6.632;2022-08-24T11:29:29;35.90;51.20
39347;DHT22;26262;49.836;6.632;2022-08-24T11:38:16;36.50;51.50
39347;DHT22;26262;49.836;6.632;2022-08-24T11:40:49;36.80;52.00
39347;DHT22;26262;49.836;6.632;2022-08-24T11:43:39;36.60;50.40
39347;DHT22;26262;49.836;6.632;2022-08-24T11:51:34;37.50;51.40
39347;DHT22;26262;49.836;6.632;2022-08-24T11:57:13;36.40;49.80
39347;DHT22;26262;49.836;6.632;2022-08-24T12:02:30;36.90;49.80
39347;DHT22;26262;49.836;6.632;2022-08-24T12:05:05;36.60;49.40
39347;DHT22;26262;49.836;6.632;2022-08-24T12:07:44;37.10;50.40
39347;DHT22;26262;49.836;6.632;2022-08-24T12:12:53;36.70;47.60
39347;DHT22;26262;49.836;6.632;2022-08-24T12:15:30;37.10;49.00
39347;DHT22;26262;49.836;6.632;2022-08-24T12:18:27;37.70;48.80
39347;DHT22;26262;49.836;6.632;2022-08-24T12:20:55;38.30;48.60
39347;DHT22;26262;49.836;6.632;2022-08-24T12:25:54;38.70;47.40
39347;DHT22;26262;49.836;6.632;2022-08-24T12:28:41;38.50;47.00
39347;DHT22;26262;49.836;6.632;2022-08-24T12:31:45;38.00;46.50
39347;DHT22;26262;49.836;6.632;2022-08-24T12:37:23;37.30;46.70
39347;DHT22;26262;49.836;6.632;2022-08-24T12:40:12;36.00;47.60
39347;DHT22;26262;49.836;6.632;2022-08-24T12:42:48;36.20;47.90
39347;DHT22;26262;49.836;6.632;2022-08-24T12:45:17;36.60;48.70
39347;DHT22;26262;49.836;6.632;2022-08-24T12:59:55;36.60;47.90
39347;DHT22;26262;49.836;6.632;2022-08-24T13:36:35;34.10;49.30
39347;DHT22;26262;49.836;6.632;2022-08-24T13:39:11;33.10;55.30
39347;DHT22;26262;49.836;6.632;2022-08-24T13:44:51;32.60;56.60
39347;DHT22;26262;49.836;6.632;2022-08-24T13:50:06;33.70;52.90
39347;DHT22;26262;49.836;6.632;2022-08-24T13:55:50;35.50;49.80
39347;DHT22;26262;49.836;6.632;2022-08-24T14:04:02;36.80;47.10
39347;DHT22;26262;49.836;6.632;2022-08-24T14:25:24;35.70;47.10
39347;DHT22;26262;49.836;6.632;2022-08-24T14:35:38;36.70;47.80
39347;DHT22;26262;49.836;6.632;2022-08-24T14:38:20;36.90;47.50
39347;DHT22;26262;49.836;6.632;2022-08-24T14:40:57;36.90;47.20
39347;DHT22;26262;49.836;6.632;2022-08-24T14:44:04;37.00;46.10
39347;DHT22;26262;49.836;6.632;2022-08-24T14:49:30;37.10;46.50
39347;DHT22;26262;49.836;6.632;2022-08-24T15:05:38;36.10;47.30
39347;DHT22;26262;49.836;6.632;2022-08-24T15:08:26;35.50;45.50
39347;DHT22;26262;49.836;6.632;2022-08-24T15:10:55;35.10;45.30
39347;DHT22;26262;49.836;6.632;2022-08-24T15:13:40;35.10;45.10
39347;DHT22;26262;49.836;6.632;2022-08-24T15:16:16;34.30;45.10
39347;DHT22;26262;49.836;6.632;2022-08-24T15:21:47;33.90;48.80
39347;DHT22;26262;49.836;6.632;2022-08-24T15:29:49;33.30;48.90
39347;DHT22;26262;49.836;6.632;2022-08-24T15:32:16;33.40;48.70
39347;DHT22;26262;49.836;6.632;2022-08-24T15:34:48;33.60;48.80
39347;DHT22;26262;49.836;6.632;2022-08-24T15:37:24;33.60;47.60
39347;DHT22;26262;49.836;6.632;2022-08-24T15:39:50;33.50;48.30
39347;DHT22;26262;49.836;6.632;2022-08-24T15:42:15;33.40;49.50
39347;DHT22;26262;49.836;6.632;2022-08-24T15:44:44;33.10;47.80
39347;DHT22;26262;49.836;6.632;2022-08-24T15:47:32;33.10;48.10
39347;DHT22;26262;49.836;6.632;2022-08-24T15:52:49;32.70;48.80
39347;DHT22;26262;49.836;6.632;2022-08-24T15:55:43;32.50;50.20
39347;DHT22;26262;49.836;6.632;2022-08-24T15:58:36;31.90;51.10
39347;DHT22;26262;49.836;6.632;2022-08-24T16:04:02;31.60;51.30
39347;DHT22;26262;49.836;6.632;2022-08-24T16:09:07;31.70;49.60
39347;DHT22;26262;49.836;6.632;2022-08-24T16:11:44;31.60;49.50
39347;DHT22;26262;49.836;6.632;2022-08-24T16:14:22;31.20;51.60
39347;DHT22;26262;49.836;6.632;2022-08-24T16:16:49;31.20;50.90
39347;DHT22;26262;49.836;6.632;2022-08-24T16:19:25;31.20;51.40
39347;DHT22;26262;49.836;6.632;2022-08-24T16:22:04;31.00;49.80
39347;DHT22;26262;49.836;6.632;2022-08-24T16:24:37;31.10;51.50
39347;DHT22;26262;49.836;6.632;2022-08-24T16:27:12;31.20;49.90
39347;DHT22;26262;49.836;6.632;2022-08-24T16:32:20;31.20;49.60
39347;DHT22;26262;49.836;6.632;2022-08-24T16:34:54;31.20;50.20
39347;DHT22;26262;49.836;6.632;2022-08-24T16:37:22;31.20;50.20
39347;DHT22;26262;49.836;6.632;2022-08-24T16:39:48;31.20;50.70
39347;DHT22;26262;49.836;6.632;2022-08-24T16:42:25;31.20;49.80
39347;DHT22;26262;49.836;6.632;2022-08-24T16:44:52;31.10;52.00
39347;DHT22;26262;49.836;6.632;2022-08-24T16:47:19;31.00;52.10
39347;DHT22;26262;49.836;6.632;2022-08-24T16:49:45;30.90;51.10
39347;DHT22;26262;49.836;6.632;2022-08-24T16:52:11;30.80;51.30
39347;DHT22;26262;49.836;6.632;2022-08-24T16:54:37;30.90;50.40
39347;DHT22;26262;49.836;6.632;2022-08-24T16:57:21;30.80;50.70
39347;DHT22;26262;49.836;6.632;2022-08-24T16:59:49;30.30;52.10
39347;DHT22;26262;49.836;6.632;2022-08-24T17:02:15;29.90;53.00
39347;DHT22;26262;49.836;6.632;2022-08-24T17:04:41;29.30;56.80
39347;DHT22;26262;49.836;6.632;2022-08-24T17:07:11;29.10;54.50
39347;DHT22;26262;49.836;6.632;2022-08-24T17:09:39;29.00;53.20
39347;DHT22;26262;49.836;6.632;2022-08-24T17:12:05;29.20;52.10
39347;DHT22;26262;49.836;6.632;2022-08-24T17:14:31;29.30;53.80
39347;DHT22;26262;49.836;6.632;2022-08-24T17:16:57;29.20;52.10
39347;DHT22;26262;49.836;6.632;2022-08-24T17:19:23;29.20;52.60
39347;DHT22;26262;49.836;6.632;2022-08-24T17:21:48;29.20;53.30
39347;DHT22;26262;49.836;6.632;2022-08-24T17:24:18;29.10;54.50
39347;DHT22;26262;49.836;6.632;2022-08-24T17:26:44;28.90;55.00
39347;DHT22;26262;49.836;6.632;2022-08-24T17:29:10;29.00;56.20
39347;DHT22;26262;49.836;6.632;2022-08-24T17:31:37;28.80;53.70
39347;DHT22;26262;49.836;6.632;2022-08-24T17:34:04;28.80;54.40
39347;DHT22;26262;49.836;6.632;2022-08-24T17:36:30;28.70;54.30
39347;DHT22;26262;49.836;6.632;2022-08-24T17:38:56;28.40;58.70
39347;DHT22;26262;49.836;6.632;2022-08-24T17:41:23;28.00;62.50
39347;DHT22;26262;49.836;6.632;2022-08-24T17:43:50;27.50;63.20
39347;DHT22;26262;49.836;6.632;2022-08-24T17:46:17;26.90;65.10
39347;DHT22;26262;49.836;6.632;2022-08-24T17:48:44;26.70;65.10
39347;DHT22;26262;49.836;6.632;2022-08-24T17:51:10;26.60;66.00
39347;DHT22;26262;49.836;6.632;2022-08-24T17:53:36;26.70;66.90
39347;DHT22;26262;49.836;6.632;2022-08-24T17:56:11;26.30;66.90
39347;DHT22;26262;49.836;6.632;2022-08-24T17:58:38;26.20;67.40
39347;DHT22;26262;49.836;6.632;2022-08-24T18:01:22;26.20;68.00
39347;DHT22;26262;49.836;6.632;2022-08-24T18:03:47;25.80;69.10
39347;DHT22;26262;49.836;6.632;2022-08-24T18:06:14;25.60;70.00
39347;DHT22;26262;49.836;6.632;2022-08-24T18:08:39;25.40;71.00
39347;DHT22;26262;49.836;6.632;2022-08-24T18:11:05;25.20;70.80
39347;DHT22;26262;49.836;6.632;2022-08-24T18:13:30;25.30;70.80
39347;DHT22;26262;49.836;6.632;2022-08-24T18:15:56;25.20;70.10
39347;DHT22;26262;49.836;6.632;2022-08-24T18:18:22;25.10;70.00
39347;DHT22;26262;49.836;6.632;2022-08-24T18:20:47;24.90;71.50
39347;DHT22;26262;49.836;6.632;2022-08-24T18:23:13;24.60;72.50
39347;DHT22;26262;49.836;6.632;2022-08-24T18:25:45;24.90;72.40
39347;DHT22;26262;49.836;6.632;2022-08-24T18:28:13;24.60;72.20
39347;DHT22;26262;49.836;6.632;2022-08-24T18:30:39;24.60;72.90
39347;DHT22;26262;49.836;6.632;2022-08-24T18:33:05;24.40;72.90
39347;DHT22;26262;49.836;6.632;2022-08-24T18:35:31;24.30;73.80
39347;DHT22;26262;49.836;6.632;2022-08-24T18:37:58;23.80;73.70
39347;DHT22;26262;49.836;6.632;2022-08-24T18:40:24;23.90;74.30
39347;DHT22;26262;49.836;6.632;2022-08-24T18:42:51;24.00;74.60
39347;DHT22;26262;49.836;6.632;2022-08-24T18:45:17;23.80;75.10
39347;DHT22;26262;49.836;6.632;2022-08-24T18:47:42;23.70;74.80
39347;DHT22;26262;49.836;6.632;2022-08-24T18:50:08;23.90;75.20
39347;DHT22;26262;49.836;6.632;2022-08-24T18:52:35;23.30;76.60
39347;DHT22;26262;49.836;6.632;2022-08-24T18:55:02;23.10;77.10
39347;DHT22;26262;49.836;6.632;2022-08-24T18:57:28;23.20;77.50
39347;DHT22;26262;49.836;6.632;2022-08-24T18:59:53;22.90;77.80
39347;DHT22;26262;49.836;6.632;2022-08-24T19:02:21;23.00;77.90
39347;DHT22;26262;49.836;6.632;2022-08-24T19:07:28;22.90;77.50
39347;DHT22;26262;49.836;6.632;2022-08-24T19:09:53;23.10;78.30
39347;DHT22;26262;49.836;6.632;2022-08-24T19:12:19;22.90;78.50
39347;DHT22;26262;49.836;6.632;2022-08-24T19:14:46;22.80;78.90
39347;DHT22;26262;49.836;6.632;2022-08-24T19:17:14;22.70;78.90
39347;DHT22;26262;49.836;6.632;2022-08-24T19:19:40;22.90;78.30
39347;DHT22;26262;49.836;6.632;2022-08-24T19:22:06;22.80;79.10
39347;DHT22;26262;49.836;6.632;2022-08-24T19:24:34;22.80;79.40
39347;DHT22;26262;49.836;6.632;2022-08-24T19:27:00;22.50;80.30
39347;DHT22;26262;49.836;6.632;2022-08-24T19:29:26;22.40;80.40
39347;DHT22;26262;49.836;6.632;2022-08-24T19:31:52;22.30;80.90
39347;DHT22;26262;49.836;6.632;2022-08-24T19:34:18;22.20;81.20
39347;DHT22;26262;49.836;6.632;2022-08-24T19:36:43;22.40;81.20
39347;DHT22;26262;49.836;6.632;2022-08-24T19:39:09;22.40;81.10
39347;DHT22;26262;49.836;6.632;2022-08-24T19:41:37;22.30;80.70